Time;durP1;ratioP1;P1;durP2;ratioP2;P2;SDS_P1;SDS_P2;PMS_P1;PMS_P2;Temp;Humidity;BMP_temperature;BMP_pressure;BME280_temperature;BME280_humidity;BME280_pressure;Samples;Min_cycle;Max_cycle;Signal;HPM_P1;HPM_P2
2022/10/22 00:01:29;;;;;;;;;;;18.60;99.90;;;;;;5069048;28;19963;-85
2022/10/22 00:03:54;;;;;;;;;;;18.60;99.90;;;;;;5068838;28;19988;-83
2022/10/22 00:06:20;;;;;;;;;;;18.60;99.90;;;;;;5067121;28;19920;-85
2022/10/22 00:08:46;;;;;;;;;;;18.70;99.90;;;;;;5065847;28;20050;-85
2022/10/22 00:11:13;;;;;;;;;;;18.70;99.90;;;;;;5072058;28;19908;-85
2022/10/22 00:13:39;;;;;;;;;;;18.60;99.90;;;;;;5073052;28;19909;-85
2022/10/22 00:16:07;;;;;;;;;;;18.50;99.90;;;;;;5071631;28;19924;-86
2022/10/22 00:18:33;;;;;;;;;;;18.50;99.90;;;;;;5066972;28;19913;-86
2022/10/22 00:20:59;;;;;;;;;;;18.40;99.90;;;;;;5059778;28;19927;-83
2022/10/22 00:23:24;;;;;;;;;;;18.40;99.90;;;;;;5083678;28;19916;-83
2022/10/22 00:25:51;;;;;;;;;;;18.50;99.90;;;;;;5066030;28;19917;-85
2022/10/22 00:28:17;;;;;;;;;;;18.50;99.90;;;;;;5057790;28;19976;-85
2022/10/22 00:30:43;;;;;;;;;;;18.50;99.90;;;;;;5057019;28;19969;-84
2022/10/22 00:33:09;;;;;;;;;;;18.50;99.90;;;;;;5058508;28;19913;-84
2022/10/22 00:35:37;;;;;;;;;;;18.50;99.90;;;;;;5058166;28;20485;-84
2022/10/22 00:38:08;;;;;;;;;;;18.60;99.90;;;;;;5057872;28;19956;-83
2022/10/22 00:40:34;;;;;;;;;;;18.60;99.90;;;;;;5057045;28;19909;-82
2022/10/22 00:42:59;;;;;;;;;;;18.70;99.90;;;;;;5058171;28;19913;-86
2022/10/22 00:45:26;;;;;;;;;;;18.80;99.90;;;;;;5058264;28;19920;-83
2022/10/22 00:47:57;;;;;;;;;;;18.80;99.90;;;;;;5061215;28;19935;-82
2022/10/22 00:50:26;;;;;;;;;;;18.80;99.90;;;;;;5062300;28;19934;-83
2022/10/22 00:52:53;;;;;;;;;;;18.80;99.90;;;;;;5061059;28;19944;-86
2022/10/22 00:55:20;;;;;;;;;;;18.80;99.90;;;;;;5059783;28;19916;-85
2022/10/22 00:57:46;;;;;;;;;;;18.80;99.90;;;;;;5076991;28;19917;-84
2022/10/22 01:00:17;;;;;;;;;;;18.80;99.90;;;;;;5063514;28;19935;-85
2022/10/22 01:02:43;;;;;;;;;;;18.80;99.90;;;;;;5066268;28;19909;-84
2022/10/22 01:05:09;;;;;;;;;;;18.80;99.90;;;;;;5069338;28;19928;-83
2022/10/22 01:07:38;;;;;;;;;;;18.70;99.90;;;;;;5070697;28;19944;-85
2022/10/22 01:10:26;;;;;;;;;;;18.70;99.90;;;;;;5070946;28;19993;-84
2022/10/22 01:12:52;;;;;;;;;;;18.80;99.90;;;;;;5071816;28;19909;-83
2022/10/22 01:15:27;;;;;;;;;;;18.80;99.90;;;;;;5078209;28;19932;-84
2022/10/22 01:18:18;;;;;;;;;;;18.80;99.90;;;;;;5074545;28;19935;-84
2022/10/22 01:21:17;;;;;;;;;;;18.80;99.90;;;;;;5077766;28;19913;-84
2022/10/22 01:23:43;;;;;;;;;;;18.70;99.90;;;;;;5057418;28;19901;-86
2022/10/22 01:26:23;;;;;;;;;;;18.70;99.90;;;;;;5078851;28;19923;-85
2022/10/22 01:28:49;;;;;;;;;;;18.80;99.90;;;;;;5075154;28;19972;-84
2022/10/22 01:31:15;;;;;;;;;;;18.80;99.90;;;;;;5072149;28;19913;-84
2022/10/22 01:33:43;;;;;;;;;;;18.80;99.90;;;;;;5067034;28;19955;-83
2022/10/22 01:36:09;;;;;;;;;;;18.80;99.90;;;;;;5066869;28;19920;-84
2022/10/22 01:38:35;;;;;;;;;;;18.70;99.90;;;;;;5071250;28;19974;-84
2022/10/22 01:41:01;;;;;;;;;;;18.70;99.90;;;;;;5068982;28;19936;-84
2022/10/22 01:43:27;;;;;;;;;;;18.60;99.90;;;;;;5065420;28;19913;-82
2022/10/22 01:45:58;;;;;;;;;;;18.50;99.90;;;;;;5070792;28;19914;-84
2022/10/22 01:48:39;;;;;;;;;;;18.50;99.90;;;;;;5069556;28;19920;-82
2022/10/22 01:51:11;;;;;;;;;;;18.50;99.90;;;;;;5060109;28;19921;-85
2022/10/22 01:53:47;;;;;;;;;;;18.50;99.90;;;;;;5062832;28;19923;-84
2022/10/22 01:56:18;;;;;;;;;;;18.50;99.90;;;;;;5063821;28;19912;-84
2022/10/22 01:58:52;;;;;;;;;;;18.60;99.90;;;;;;5066453;28;20370;-83
2022/10/22 02:01:20;;;;;;;;;;;18.50;99.90;;;;;;5073141;28;19917;-85
2022/10/22 02:03:52;;;;;;;;;;;18.40;99.90;;;;;;5068456;28;19916;-83
2022/10/22 02:06:20;;;;;;;;;;;18.40;99.90;;;;;;5061868;28;19917;-83
2022/10/22 02:08:46;;;;;;;;;;;18.50;99.90;;;;;;5058306;28;19913;-85
2022/10/22 02:11:12;;;;;;;;;;;18.50;99.90;;;;;;5066681;28;19916;-83
2022/10/22 02:13:41;;;;;;;;;;;18.50;99.90;;;;;;5064313;28;19913;-84
2022/10/22 02:16:08;;;;;;;;;;;18.50;99.90;;;;;;5058819;28;19963;-85
2022/10/22 02:18:35;;;;;;;;;;;18.50;99.90;;;;;;5062479;28;19909;-85
2022/10/22 02:21:04;;;;;;;;;;;18.50;99.90;;;;;;5061535;28;19917;-84
2022/10/22 02:23:30;;;;;;;;;;;18.50;99.90;;;;;;5061144;28;19919;-84
2022/10/22 02:26:02;;;;;;;;;;;18.60;99.90;;;;;;5061992;28;19972;-85
2022/10/22 02:28:31;;;;;;;;;;;18.50;99.90;;;;;;5063301;28;19984;-87
2022/10/22 02:31:02;;;;;;;;;;;18.50;99.90;;;;;;5069356;28;19912;-86
2022/10/22 02:33:33;;;;;;;;;;;18.60;99.90;;;;;;5061624;28;19948;-85
2022/10/22 02:36:00;;;;;;;;;;;18.70;99.90;;;;;;5082440;28;19913;-83
2022/10/22 02:38:27;;;;;;;;;;;18.70;99.90;;;;;;5060852;28;19947;-85
2022/10/22 02:40:52;;;;;;;;;;;18.70;99.90;;;;;;5062921;28;19928;-85
2022/10/22 02:43:18;;;;;;;;;;;18.80;99.90;;;;;;5060767;28;19986;-85
2022/10/22 02:45:45;;;;;;;;;;;18.80;99.90;;;;;;5066379;28;19921;-84
2022/10/22 02:48:10;;;;;;;;;;;18.80;99.90;;;;;;5067667;28;19912;-84
2022/10/22 02:50:38;;;;;;;;;;;18.80;99.90;;;;;;5064185;28;19988;-85
2022/10/22 02:53:05;;;;;;;;;;;18.90;99.90;;;;;;5063500;28;19932;-86
2022/10/22 02:55:33;;;;;;;;;;;18.90;99.90;;;;;;5067466;28;19913;-86
2022/10/22 02:57:58;;;;;;;;;;;18.90;99.90;;;;;;5060210;28;19944;-85
2022/10/22 03:00:27;;;;;;;;;;;19.00;99.90;;;;;;5058680;28;19921;-85
2022/10/22 03:02:53;;;;;;;;;;;18.90;99.90;;;;;;5061107;28;19963;-84
2022/10/22 03:05:19;;;;;;;;;;;18.90;99.90;;;;;;5065714;28;19916;-85
2022/10/22 03:07:52;;;;;;;;;;;18.90;99.90;;;;;;5070318;28;19966;-85
2022/10/22 03:10:18;;;;;;;;;;;18.90;99.90;;;;;;5064046;28;19927;-84
2022/10/22 03:12:47;;;;;;;;;;;18.90;99.90;;;;;;5063541;28;19913;-84
2022/10/22 03:15:12;;;;;;;;;;;18.90;99.90;;;;;;5069885;28;19923;-84
2022/10/22 03:17:38;;;;;;;;;;;19.00;99.90;;;;;;5068883;28;19944;-85
2022/10/22 03:20:04;;;;;;;;;;;19.00;99.90;;;;;;5061855;28;19920;-83
2022/10/22 03:22:31;;;;;;;;;;;19.00;99.90;;;;;;5061515;28;19897;-86
2022/10/22 03:24:58;;;;;;;;;;;19.00;99.90;;;;;;5061220;28;19928;-85
2022/10/22 03:27:27;;;;;;;;;;;18.90;99.90;;;;;;5064176;28;19944;-84
2022/10/22 03:29:54;;;;;;;;;;;18.90;99.90;;;;;;5064359;28;19912;-86
2022/10/22 03:32:19;;;;;;;;;;;19.00;99.90;;;;;;5060616;28;19934;-84
2022/10/22 03:34:45;;;;;;;;;;;19.00;99.90;;;;;;5061961;28;19913;-84
2022/10/22 03:37:11;;;;;;;;;;;19.00;99.90;;;;;;5064789;28;19928;-83
2022/10/22 03:39:37;;;;;;;;;;;19.00;99.90;;;;;;5062388;28;19913;-85
2022/10/22 03:42:04;;;;;;;;;;;19.00;99.90;;;;;;5061872;28;19920;-87
2022/10/22 03:44:30;;;;;;;;;;;18.90;99.90;;;;;;5068612;28;19961;-84
2022/10/22 03:46:56;;;;;;;;;;;18.90;99.90;;;;;;5071551;28;19965;-84
2022/10/22 03:49:22;;;;;;;;;;;18.80;99.90;;;;;;5068055;28;19955;-87
2022/10/22 03:51:51;;;;;;;;;;;18.90;99.90;;;;;;5070259;28;19944;-83
2022/10/22 03:54:17;;;;;;;;;;;18.90;99.90;;;;;;5068759;28;19912;-86
2022/10/22 03:56:42;;;;;;;;;;;18.80;99.90;;;;;;5070185;28;19947;-84
2022/10/22 03:59:08;;;;;;;;;;;18.90;99.90;;;;;;5061315;28;19924;-85
2022/10/22 04:01:34;;;;;;;;;;;19.00;99.90;;;;;;5057710;28;19928;-85
2022/10/22 04:04:03;;;;;;;;;;;18.90;99.90;;;;;;5072849;28;19912;-87
2022/10/22 04:06:29;;;;;;;;;;;19.00;99.90;;;;;;5057850;28;19927;-84
2022/10/22 04:08:55;;;;;;;;;;;18.90;99.90;;;;;;5064126;28;19944;-85
2022/10/22 04:11:23;;;;;;;;;;;18.90;99.90;;;;;;5060338;28;20078;-84
2022/10/22 04:13:51;;;;;;;;;;;18.80;99.90;;;;;;5064113;28;19929;-85
2022/10/22 04:16:31;;;;;;;;;;;19.00;99.90;;;;;;5064089;28;19909;-86
2022/10/22 04:18:57;;;;;;;;;;;18.90;99.90;;;;;;5064361;28;19963;-84
2022/10/22 04:21:26;;;;;;;;;;;18.90;99.90;;;;;;5064111;28;20077;-83
2022/10/22 04:23:51;;;;;;;;;;;18.90;99.90;;;;;;5060372;28;19927;-85
2022/10/22 04:26:21;;;;;;;;;;;18.90;99.90;;;;;;5055445;28;20568;-85
2022/10/22 04:28:48;;;;;;;;;;;18.90;99.90;;;;;;5058520;28;20526;-83
2022/10/22 04:31:20;;;;;;;;;;;18.80;99.90;;;;;;5069236;28;19912;-84
2022/10/22 04:33:48;;;;;;;;;;;18.90;99.90;;;;;;5064830;28;19940;-85
2022/10/22 04:36:16;;;;;;;;;;;18.90;99.90;;;;;;5060681;28;19921;-85
2022/10/22 04:38:43;;;;;;;;;;;19.00;99.90;;;;;;5064523;28;19967;-85
2022/10/22 04:41:10;;;;;;;;;;;19.00;99.90;;;;;;5055927;28;19921;-85
2022/10/22 04:43:36;;;;;;;;;;;18.90;99.90;;;;;;5066285;28;19913;-86
2022/10/22 04:46:02;;;;;;;;;;;18.80;99.90;;;;;;5063968;28;19917;-86
2022/10/22 04:48:28;;;;;;;;;;;18.90;99.90;;;;;;5069114;28;19908;-85
2022/10/22 04:50:55;;;;;;;;;;;18.90;99.90;;;;;;5068913;28;19909;-85
2022/10/22 04:53:21;;;;;;;;;;;18.90;99.90;;;;;;5069719;28;20139;-84
2022/10/22 04:55:47;;;;;;;;;;;18.80;99.90;;;;;;5069190;28;19909;-84
2022/10/22 04:58:13;;;;;;;;;;;18.80;99.90;;;;;;5069768;28;19931;-84
2022/10/22 05:00:41;;;;;;;;;;;18.80;99.90;;;;;;5066456;28;19923;-85
2022/10/22 05:03:07;;;;;;;;;;;18.80;99.90;;;;;;5060565;28;19913;-85
2022/10/22 05:05:32;;;;;;;;;;;18.80;99.90;;;;;;5058830;28;19924;-85
2022/10/22 05:07:58;;;;;;;;;;;18.90;99.90;;;;;;5060754;28;19913;-84
2022/10/22 05:10:27;;;;;;;;;;;18.90;99.90;;;;;;5060139;28;19921;-84
2022/10/22 05:12:52;;;;;;;;;;;18.90;99.90;;;;;;5059145;28;20007;-84
2022/10/22 05:15:18;;;;;;;;;;;18.80;99.90;;;;;;5053763;28;20000;-86
2022/10/22 05:17:44;;;;;;;;;;;18.80;99.90;;;;;;5061263;28;19901;-84
2022/10/22 05:20:10;;;;;;;;;;;18.90;99.90;;;;;;5057215;28;19959;-83
2022/10/22 05:22:38;;;;;;;;;;;19.00;99.90;;;;;;5067980;28;19924;-84
2022/10/22 05:25:04;;;;;;;;;;;19.00;99.90;;;;;;5061841;28;19901;-87
2022/10/22 05:27:44;;;;;;;;;;;19.00;99.90;;;;;;5060665;28;19936;-86
2022/10/22 05:30:23;;;;;;;;;;;19.00;99.90;;;;;;5062295;28;19971;-85
2022/10/22 05:32:54;;;;;;;;;;;19.00;99.90;;;;;;5066017;28;19913;-84
2022/10/22 05:35:46;;;;;;;;;;;19.00;99.90;;;;;;5069584;28;19921;-86
2022/10/22 05:38:18;;;;;;;;;;;18.90;99.90;;;;;;5068492;28;19932;-86
2022/10/22 05:40:44;;;;;;;;;;;19.00;99.90;;;;;;5072165;28;19913;-86
2022/10/22 05:43:10;;;;;;;;;;;19.00;99.90;;;;;;5067469;28;19971;-87
2022/10/22 05:45:40;;;;;;;;;;;19.00;99.90;;;;;;5065181;28;19921;-87
2022/10/22 05:48:07;;;;;;;;;;;18.90;99.90;;;;;;5064636;28;20318;-86
2022/10/22 05:50:38;;;;;;;;;;;18.90;99.90;;;;;;5066200;28;19913;-85
2022/10/22 05:53:04;;;;;;;;;;;18.90;99.90;;;;;;5062211;28;19920;-84
2022/10/22 05:55:35;;;;;;;;;;;18.90;99.90;;;;;;5065661;28;19913;-85
2022/10/22 05:58:02;;;;;;;;;;;19.00;99.90;;;;;;5075983;28;19920;-84
2022/10/22 06:00:36;;;;;;;;;;;18.90;99.90;;;;;;5083480;28;20356;-86
2022/10/22 06:03:11;;;;;;;;;;;18.90;99.90;;;;;;5076890;28;19913;-84
2022/10/22 06:05:37;;;;;;;;;;;18.90;99.90;;;;;;5071304;28;19940;-85
2022/10/22 06:08:03;;;;;;;;;;;18.90;99.90;;;;;;5070961;28;20393;-85
2022/10/22 06:10:29;;;;;;;;;;;19.00;99.90;;;;;;5055921;28;19913;-84
2022/10/22 06:12:57;;;;;;;;;;;19.00;99.90;;;;;;5068940;28;19966;-85
2022/10/22 06:15:26;;;;;;;;;;;19.00;99.90;;;;;;5072362;28;19920;-84
2022/10/22 06:17:57;;;;;;;;;;;19.00;99.90;;;;;;5072043;28;19897;-86
2022/10/22 06:20:25;;;;;;;;;;;19.00;99.90;;;;;;5071428;28;19909;-85
2022/10/22 06:22:51;;;;;;;;;;;19.00;99.90;;;;;;5072815;28;20394;-84
2022/10/22 06:25:17;;;;;;;;;;;19.00;99.90;;;;;;5072787;28;19988;-84
2022/10/22 06:27:47;;;;;;;;;;;19.00;99.90;;;;;;5056275;28;19909;-84
2022/10/22 06:30:13;;;;;;;;;;;19.00;99.90;;;;;;5051771;28;19909;-85
2022/10/22 06:32:39;;;;;;;;;;;19.00;99.90;;;;;;5074733;28;19998;-85
2022/10/22 06:35:08;;;;;;;;;;;19.00;99.90;;;;;;5071911;28;19921;-85
2022/10/22 06:37:34;;;;;;;;;;;19.00;99.90;;;;;;5079680;28;19908;-86
2022/10/22 06:39:59;;;;;;;;;;;19.00;99.90;;;;;;5092464;28;19908;-85
2022/10/22 06:42:26;;;;;;;;;;;19.10;99.90;;;;;;5091757;28;19916;-84
2022/10/22 06:44:52;;;;;;;;;;;19.10;99.90;;;;;;5054755;28;20015;-83
2022/10/22 06:47:18;;;;;;;;;;;19.10;99.90;;;;;;5051723;28;19910;-84
2022/10/22 06:49:43;;;;;;;;;;;19.10;99.90;;;;;;5064415;28;19909;-84
2022/10/22 06:52:09;;;;;;;;;;;19.20;99.90;;;;;;5071082;28;19916;-86
2022/10/22 06:54:34;;;;;;;;;;;19.30;99.90;;;;;;5069760;28;19936;-85
2022/10/22 06:57:00;;;;;;;;;;;19.30;99.90;;;;;;5086866;28;19952;-83
2022/10/22 06:59:26;;;;;;;;;;;19.50;99.90;;;;;;5068080;28;19996;-85
2022/10/22 07:01:51;;;;;;;;;;;19.50;99.90;;;;;;5050806;28;20260;-77
2022/10/22 07:04:17;;;;;;;;;;;19.60;99.90;;;;;;5062892;28;19913;-77
2022/10/22 07:06:43;;;;;;;;;;;19.60;99.90;;;;;;5064701;28;19917;-77
2022/10/22 07:09:08;;;;;;;;;;;19.80;99.90;;;;;;5055685;28;19913;-77
2022/10/22 07:11:41;;;;;;;;;;;19.80;99.90;;;;;;5053654;28;19917;-78
2022/10/22 07:14:07;;;;;;;;;;;19.80;99.90;;;;;;5054398;28;19912;-76
2022/10/22 07:16:33;;;;;;;;;;;19.90;99.90;;;;;;5050704;28;19980;-76
2022/10/22 07:18:59;;;;;;;;;;;19.90;99.90;;;;;;5043771;28;19920;-76
2022/10/22 07:21:25;;;;;;;;;;;19.90;99.90;;;;;;5048435;28;20302;-76
2022/10/22 07:23:51;;;;;;;;;;;19.80;99.90;;;;;;5044365;28;19913;-77
2022/10/22 07:26:16;;;;;;;;;;;19.80;99.90;;;;;;5055223;28;19948;-77
2022/10/22 07:28:42;;;;;;;;;;;19.80;99.90;;;;;;5050769;28;19920;-75
2022/10/22 07:31:09;;;;;;;;;;;19.90;99.90;;;;;;5047777;28;19997;-76
2022/10/22 07:33:34;;;;;;;;;;;19.90;99.90;;;;;;5053532;28;20685;-77
2022/10/22 07:36:01;;;;;;;;;;;19.90;99.90;;;;;;5052554;28;19923;-77
2022/10/22 07:38:27;;;;;;;;;;;20.00;99.90;;;;;;5054406;28;19995;-77
2022/10/22 07:40:52;;;;;;;;;;;19.90;99.90;;;;;;5051203;28;19956;-77
2022/10/22 07:43:18;;;;;;;;;;;19.90;99.90;;;;;;5052180;28;19958;-77
2022/10/22 07:45:44;;;;;;;;;;;19.90;99.90;;;;;;5053776;28;20296;-76
2022/10/22 07:48:10;;;;;;;;;;;20.00;99.90;;;;;;5052873;28;19916;-76
2022/10/22 07:50:35;;;;;;;;;;;20.00;99.90;;;;;;5052515;28;19913;-76
2022/10/22 07:53:01;;;;;;;;;;;19.90;99.90;;;;;;5049250;28;20000;-75
2022/10/22 07:55:27;;;;;;;;;;;20.00;99.90;;;;;;5052707;28;20266;-75
2022/10/22 07:57:52;;;;;;;;;;;19.90;99.90;;;;;;5054246;28;20008;-76
2022/10/22 08:00:18;;;;;;;;;;;19.90;99.90;;;;;;5043799;28;19913;-76
2022/10/22 08:02:44;;;;;;;;;;;19.90;99.90;;;;;;5048452;28;19913;-76
2022/10/22 08:05:10;;;;;;;;;;;19.90;99.90;;;;;;5053031;28;19984;-77
2022/10/22 08:07:35;;;;;;;;;;;19.90;99.90;;;;;;5049904;28;19921;-78
2022/10/22 08:10:01;;;;;;;;;;;19.90;99.90;;;;;;5047478;28;20398;-77
2022/10/22 08:12:29;;;;;;;;;;;19.90;99.90;;;;;;5058438;28;19909;-77
2022/10/22 08:14:55;;;;;;;;;;;20.00;99.90;;;;;;5058927;28;19912;-77
2022/10/22 08:17:21;;;;;;;;;;;19.90;99.90;;;;;;5056644;28;20008;-77
2022/10/22 08:19:46;;;;;;;;;;;19.90;99.90;;;;;;5062368;28;19916;-77
2022/10/22 08:22:12;;;;;;;;;;;19.90;99.90;;;;;;5060492;28;20018;-77
2022/10/22 08:24:38;;;;;;;;;;;19.90;99.90;;;;;;5057321;28;19917;-77
2022/10/22 08:27:03;;;;;;;;;;;20.00;99.90;;;;;;5056354;28;20259;-77
2022/10/22 08:29:29;;;;;;;;;;;20.00;99.90;;;;;;5054139;28;19909;-77
2022/10/22 08:31:55;;;;;;;;;;;19.90;99.90;;;;;;5055735;28;20406;-79
2022/10/22 08:34:20;;;;;;;;;;;20.00;99.90;;;;;;5053767;28;19951;-80
2022/10/22 08:36:46;;;;;;;;;;;20.00;99.90;;;;;;5053067;28;19976;-80
2022/10/22 08:39:12;;;;;;;;;;;20.00;99.90;;;;;;5047542;28;19984;-79
2022/10/22 08:41:41;;;;;;;;;;;20.10;99.90;;;;;;5055042;28;19930;-78
2022/10/22 08:44:09;;;;;;;;;;;20.20;99.90;;;;;;5051767;28;20088;-79
2022/10/22 08:46:58;;;;;;;;;;;20.20;99.90;;;;;;5057733;28;19927;-79
2022/10/22 08:49:25;;;;;;;;;;;20.20;99.90;;;;;;5055845;28;19913;-80
2022/10/22 08:51:51;;;;;;;;;;;20.30;99.90;;;;;;5058251;28;19920;-78
2022/10/22 08:54:35;;;;;;;;;;;20.40;99.90;;;;;;5054794;28;19912;-80
2022/10/22 08:57:08;;;;;;;;;;;20.50;99.90;;;;;;5057409;28;20271;-80
2022/10/22 08:59:54;;;;;;;;;;;20.40;99.90;;;;;;5059064;28;20235;-79
2022/10/22 09:02:29;;;;;;;;;;;20.60;99.90;;;;;;5053071;28;19916;-81
2022/10/22 09:05:01;;;;;;;;;;;20.60;99.90;;;;;;5056010;28;19921;-77
2022/10/22 09:07:26;;;;;;;;;;;20.60;99.90;;;;;;5053524;28;19976;-77
2022/10/22 09:09:53;;;;;;;;;;;20.60;99.90;;;;;;5063778;28;19955;-78
2022/10/22 09:12:21;;;;;;;;;;;20.70;99.90;;;;;;5064990;28;19955;-80
2022/10/22 09:14:47;;;;;;;;;;;20.60;99.90;;;;;;5057279;28;19913;-78
2022/10/22 09:17:15;;;;;;;;;;;20.60;99.90;;;;;;5052562;28;19920;-78
2022/10/22 09:19:48;;;;;;;;;;;20.70;99.90;;;;;;5055582;28;20263;-78
2022/10/22 09:22:32;;;;;;;;;;;20.60;99.90;;;;;;5049493;28;20460;-78
2022/10/22 09:25:00;;;;;;;;;;;20.60;99.90;;;;;;5056917;28;20330;-78
2022/10/22 09:27:27;;;;;;;;;;;20.60;99.90;;;;;;5057907;28;20020;-78
2022/10/22 09:29:53;;;;;;;;;;;20.60;99.90;;;;;;5058226;28;19920;-78
2022/10/22 09:32:19;;;;;;;;;;;20.60;99.90;;;;;;5059160;28;19913;-78
2022/10/22 09:34:45;;;;;;;;;;;20.60;99.90;;;;;;5056475;28;19969;-78
2022/10/22 09:37:11;;;;;;;;;;;20.70;99.90;;;;;;5055215;28;20286;-78
2022/10/22 09:39:36;;;;;;;;;;;20.60;99.90;;;;;;5058057;28;19920;-78
2022/10/22 09:42:02;;;;;;;;;;;20.60;99.90;;;;;;5058740;28;19916;-78
2022/10/22 09:44:28;;;;;;;;;;;20.60;99.90;;;;;;5057381;28;19932;-78
2022/10/22 09:46:53;;;;;;;;;;;20.60;99.90;;;;;;5052351;28;19956;-77
2022/10/22 09:49:23;;;;;;;;;;;20.60;99.90;;;;;;5054682;28;19924;-78
2022/10/22 09:51:53;;;;;;;;;;;20.60;99.90;;;;;;5055079;28;19939;-77
2022/10/22 09:54:21;;;;;;;;;;;20.60;99.90;;;;;;5055591;28;19920;-77
2022/10/22 09:56:52;;;;;;;;;;;20.50;99.90;;;;;;5057756;28;19909;-78
2022/10/22 09:59:23;;;;;;;;;;;20.50;99.90;;;;;;5048049;28;19971;-78
2022/10/22 10:01:55;;;;;;;;;;;20.60;99.90;;;;;;5059502;28;19909;-77
2022/10/22 10:04:21;;;;;;;;;;;20.70;99.90;;;;;;5060158;28;20240;-78
2022/10/22 10:06:52;;;;;;;;;;;20.70;99.90;;;;;;5061206;28;20392;-78
2022/10/22 10:09:19;;;;;;;;;;;20.70;99.90;;;;;;5064629;28;19920;-78
2022/10/22 10:11:48;;;;;;;;;;;20.80;99.90;;;;;;5058589;28;19944;-79
2022/10/22 10:14:13;;;;;;;;;;;20.90;99.90;;;;;;5059138;28;19913;-78
2022/10/22 10:16:42;;;;;;;;;;;21.00;99.90;;;;;;5060691;28;19920;-78
2022/10/22 10:19:14;;;;;;;;;;;20.90;99.90;;;;;;5056188;28;19962;-78
2022/10/22 10:21:46;;;;;;;;;;;20.90;99.90;;;;;;5061601;28;19923;-78
2022/10/22 10:24:22;;;;;;;;;;;21.00;99.90;;;;;;5055948;28;20504;-78
2022/10/22 10:26:53;;;;;;;;;;;21.00;99.90;;;;;;5058406;28;19993;-78
2022/10/22 10:29:26;;;;;;;;;;;21.20;99.90;;;;;;5049488;28;19919;-77
2022/10/22 10:32:10;;;;;;;;;;;21.10;99.90;;;;;;5059203;28;20409;-77
2022/10/22 10:34:46;;;;;;;;;;;21.10;99.90;;;;;;5058745;28;19974;-77
2022/10/22 10:37:16;;;;;;;;;;;21.20;99.90;;;;;;5057154;28;19936;-77
2022/10/22 10:39:54;;;;;;;;;;;21.10;99.90;;;;;;5055931;28;19929;-76
2022/10/22 10:42:32;;;;;;;;;;;21.00;99.90;;;;;;5051411;28;19909;-76
2022/10/22 10:44:58;;;;;;;;;;;21.00;99.90;;;;;;5047083;28;20432;-76
2022/10/22 10:47:32;;;;;;;;;;;21.00;99.90;;;;;;5050989;28;19921;-77
2022/10/22 10:50:13;;;;;;;;;;;21.00;99.90;;;;;;5049628;28;19949;-77
2022/10/22 10:52:43;;;;;;;;;;;21.00;99.90;;;;;;5053364;28;19916;-77
2022/10/22 10:55:24;;;;;;;;;;;21.00;99.90;;;;;;5053033;28;19959;-79
2022/10/22 10:57:50;;;;;;;;;;;21.10;99.90;;;;;;5051373;28;20434;-77
2022/10/22 11:00:18;;;;;;;;;;;21.00;99.90;;;;;;5063377;28;19963;-79
2022/10/22 11:02:44;;;;;;;;;;;21.00;99.90;;;;;;5064973;28;19917;-76
2022/10/22 11:05:16;;;;;;;;;;;21.00;99.90;;;;;;5067831;28;19917;-76
2022/10/22 11:07:46;;;;;;;;;;;21.20;99.90;;;;;;5059336;28;19912;-77
2022/10/22 11:10:17;;;;;;;;;;;21.20;99.90;;;;;;5059794;28;19976;-76
2022/10/22 11:12:44;;;;;;;;;;;21.20;99.90;;;;;;5055289;28;19913;-77
2022/10/22 11:15:28;;;;;;;;;;;21.20;99.90;;;;;;5051689;28;19943;-76
2022/10/22 11:17:58;;;;;;;;;;;21.20;99.90;;;;;;5052373;28;19951;-77
2022/10/22 11:20:27;;;;;;;;;;;21.10;99.90;;;;;;5053240;28;19936;-77
2022/10/22 11:23:01;;;;;;;;;;;21.10;99.90;;;;;;5050340;28;20275;-78
2022/10/22 11:25:32;;;;;;;;;;;21.20;99.90;;;;;;5051696;28;19916;-77
2022/10/22 11:28:04;;;;;;;;;;;21.30;99.90;;;;;;5052421;28;19927;-76
2022/10/22 11:30:33;;;;;;;;;;;21.30;99.90;;;;;;5046903;28;19931;-77
2022/10/22 11:33:02;;;;;;;;;;;21.30;99.90;;;;;;5056095;28;19909;-77
2022/10/22 11:35:34;;;;;;;;;;;21.40;99.90;;;;;;5051945;28;19913;-77
2022/10/22 11:38:00;;;;;;;;;;;21.40;99.90;;;;;;5054465;28;19968;-77
2022/10/22 11:40:33;;;;;;;;;;;21.40;99.90;;;;;;5043783;28;19917;-76
2022/10/22 11:43:03;;;;;;;;;;;21.40;99.90;;;;;;5049834;28;19916;-77
2022/10/22 11:45:33;;;;;;;;;;;21.40;99.90;;;;;;5045871;28;20357;-77
2022/10/22 11:48:08;;;;;;;;;;;21.50;99.90;;;;;;5047924;28;19917;-77
2022/10/22 11:50:40;;;;;;;;;;;21.40;99.90;;;;;;5046320;28;19916;-77
2022/10/22 11:53:26;;;;;;;;;;;21.40;99.90;;;;;;5044424;28;19966;-76
2022/10/22 11:55:54;;;;;;;;;;;21.30;99.90;;;;;;5049458;28;19913;-77
2022/10/22 11:58:34;;;;;;;;;;;21.30;99.90;;;;;;5039740;28;19948;-76
2022/10/22 12:01:08;;;;;;;;;;;21.30;99.90;;;;;;5052576;28;19919;-76
2022/10/22 12:03:34;;;;;;;;;;;21.30;99.90;;;;;;5047319;28;19977;-77
2022/10/22 12:06:13;;;;;;;;;;;21.40;99.90;;;;;;5047113;28;19921;-76
2022/10/22 12:08:42;;;;;;;;;;;21.40;99.90;;;;;;5052902;28;19909;-76
2022/10/22 12:11:11;;;;;;;;;;;21.40;99.90;;;;;;5051690;28;20379;-78
2022/10/22 12:13:52;;;;;;;;;;;21.40;99.90;;;;;;5047844;28;19913;-77
2022/10/22 12:16:21;;;;;;;;;;;21.40;99.90;;;;;;5048803;28;19916;-77
2022/10/22 12:18:48;;;;;;;;;;;21.40;99.90;;;;;;5054332;28;20380;-76
2022/10/22 12:21:15;;;;;;;;;;;21.50;99.90;;;;;;5054044;28;19913;-76
2022/10/22 12:23:41;;;;;;;;;;;21.50;99.90;;;;;;5042299;28;19920;-77
2022/10/22 12:26:21;;;;;;;;;;;21.40;99.90;;;;;;5052960;28;20014;-76
2022/10/22 12:28:47;;;;;;;;;;;21.40;99.90;;;;;;5055756;28;19919;-79
2022/10/22 12:31:16;;;;;;;;;;;21.50;99.90;;;;;;5054262;28;19921;-76
2022/10/22 12:33:41;;;;;;;;;;;21.60;99.90;;;;;;5051939;28;19913;-76
2022/10/22 12:36:14;;;;;;;;;;;21.60;99.90;;;;;;5053856;28;19963;-76
2022/10/22 12:38:45;;;;;;;;;;;21.60;99.90;;;;;;5052968;28;19944;-77
2022/10/22 12:41:12;;;;;;;;;;;21.50;99.90;;;;;;5047750;28;19913;-76
2022/10/22 12:43:40;;;;;;;;;;;21.50;99.90;;;;;;5059641;28;19916;-76
2022/10/22 12:46:13;;;;;;;;;;;21.50;99.90;;;;;;5059282;28;20428;-76
2022/10/22 12:48:41;;;;;;;;;;;21.50;99.90;;;;;;5056332;28;19934;-76
2022/10/22 12:51:08;;;;;;;;;;;21.50;99.90;;;;;;5056605;28;20000;-76
2022/10/22 12:53:38;;;;;;;;;;;21.50;99.90;;;;;;5058790;28;19908;-76
2022/10/22 12:56:12;;;;;;;;;;;21.40;99.90;;;;;;5058897;28;20004;-77
2022/10/22 12:58:40;;;;;;;;;;;21.30;99.90;;;;;;5043915;28;20351;-76
2022/10/22 13:01:06;;;;;;;;;;;21.30;99.90;;;;;;5045499;28;19948;-76
2022/10/22 13:03:33;;;;;;;;;;;21.20;99.90;;;;;;5056646;28;19920;-76
2022/10/22 13:06:17;;;;;;;;;;;21.10;99.90;;;;;;5056693;28;19912;-75
2022/10/22 13:08:58;;;;;;;;;;;20.90;99.90;;;;;;5053596;28;19917;-76
2022/10/22 13:11:30;;;;;;;;;;;20.70;99.90;;;;;;5051074;28;19909;-77
2022/10/22 13:14:02;;;;;;;;;;;20.50;99.90;;;;;;5056905;28;19952;-76
2022/10/22 13:16:29;;;;;;;;;;;20.30;99.90;;;;;;5049038;28;19988;-76
2022/10/22 13:18:55;;;;;;;;;;;20.20;99.90;;;;;;5049692;28;19952;-76
2022/10/22 13:21:25;;;;;;;;;;;20.00;99.90;;;;;;5045895;28;19944;-77
2022/10/22 13:23:52;;;;;;;;;;;19.90;99.90;;;;;;5053401;28;20024;-76
2022/10/22 13:26:18;;;;;;;;;;;19.80;99.90;;;;;;5051916;28;19927;-76
2022/10/22 13:28:51;;;;;;;;;;;19.80;99.90;;;;;;5060411;28;19960;-78
2022/10/22 13:31:19;;;;;;;;;;;19.60;99.90;;;;;;5047012;28;20460;-76
2022/10/22 13:33:49;;;;;;;;;;;19.60;99.90;;;;;;5054527;28;19916;-77
2022/10/22 13:36:15;;;;;;;;;;;19.60;99.90;;;;;;5054749;28;20003;-76
2022/10/22 13:38:42;;;;;;;;;;;19.50;99.90;;;;;;5057297;28;19912;-75
2022/10/22 13:41:27;;;;;;;;;;;19.60;99.90;;;;;;5054178;28;19913;-76
2022/10/22 13:43:53;;;;;;;;;;;19.60;99.90;;;;;;5052190;28;19913;-78
2022/10/22 13:46:19;;;;;;;;;;;19.60;99.90;;;;;;5060400;28;19916;-76
2022/10/22 13:48:46;;;;;;;;;;;19.60;99.90;;;;;;5047199;28;20387;-76
2022/10/22 13:51:16;;;;;;;;;;;19.60;99.90;;;;;;5057232;28;19913;-76
2022/10/22 13:53:42;;;;;;;;;;;19.60;99.90;;;;;;5061587;28;19924;-75
2022/10/22 13:56:18;;;;;;;;;;;19.80;99.90;;;;;;5054804;28;19928;-75
2022/10/22 13:58:44;;;;;;;;;;;19.80;99.90;;;;;;5053592;28;19920;-75
2022/10/22 14:01:28;;;;;;;;;;;19.90;99.90;;;;;;5052408;28;19920;-76
2022/10/22 14:03:56;;;;;;;;;;;19.70;99.90;;;;;;5054666;28;19913;-76
2022/10/22 14:06:23;;;;;;;;;;;19.60;99.90;;;;;;5055415;28;20028;-76
2022/10/22 14:08:54;;;;;;;;;;;19.50;99.90;;;;;;5047994;28;19955;-77
2022/10/22 14:11:20;;;;;;;;;;;19.60;99.90;;;;;;5045149;28;19913;-76
2022/10/22 14:13:46;;;;;;;;;;;19.50;99.90;;;;;;5059435;28;19920;-77
2022/10/22 14:16:15;;;;;;;;;;;19.50;99.90;;;;;;5058598;28;19912;-76
2022/10/22 14:18:40;;;;;;;;;;;19.50;99.90;;;;;;5058456;28;20324;-77
2022/10/22 14:21:06;;;;;;;;;;;19.50;99.90;;;;;;5058429;28;20005;-76
2022/10/22 14:23:33;;;;;;;;;;;19.50;99.90;;;;;;5056992;28;20016;-77
2022/10/22 14:25:59;;;;;;;;;;;19.40;99.90;;;;;;5051954;28;20351;-75